Terminal Aerodrome Forecast
Issued by NWS

Home | Current Version | Previous Version | Text Only | Print | Product List | Glossary On
Versions: 1 2 3 4 5 6 7 8 9 10 11 12 13 14 15 16 17
000
FTUS43 KICT 031129
TAFSLN
TAF
KSLN 031129Z 0312/0412 18012G22KT P6SM SCT100 OVC250
     FM031500 18017G26KT P6SM SCT100
     FM031800 19023G33KT P6SM SCT200
     FM040100 18014KT P6SM VCTS SCT060CB BKN120
     FM040700 18011KT P6SM OVC250=

USA.gov is the U.S. government's official web portal to all federal, state and local government web resources and services.